createdAt,value
2022-12-05T00:02:33.884Z,101879.34
2022-12-05T00:05:23.463Z,101883.16
2022-12-05T00:08:12.940Z,101882.63
2022-12-05T00:11:02.274Z,101886.97
2022-12-05T00:13:53.288Z,101879.59
2022-12-05T00:16:45.612Z,101881.78
2022-12-05T00:19:35.388Z,101883.44
2022-12-05T00:22:24.655Z,101884.28
2022-12-05T00:25:13.982Z,101880.47
2022-12-05T00:28:03.360Z,101881.59
2022-12-05T00:30:52.732Z,101864.94
2022-12-05T00:33:43.816Z,101860.81
2022-12-05T00:36:36.534Z,101881.00
2022-12-05T00:39:25.896Z,101871.75
2022-12-05T00:42:15.343Z,101866.03
2022-12-05T00:45:05.299Z,101884.59
2022-12-05T00:47:54.630Z,101891.69
2022-12-05T00:50:45.384Z,101897.41
2022-12-05T00:53:35.441Z,101893.06
2022-12-05T00:56:27.926Z,101903.69
2022-12-05T00:59:21.967Z,101907.19
2022-12-05T01:02:11.360Z,101913.16
2022-12-05T01:05:00.629Z,101925.16
2022-12-05T01:07:51.377Z,101916.72
2022-12-05T01:10:40.749Z,101940.41
2022-12-05T01:13:30.837Z,101931.13
2022-12-05T01:16:24.203Z,101931.97
2022-12-05T01:19:17.226Z,101928.34
2022-12-05T01:22:06.700Z,101917.41
2022-12-05T01:24:58.300Z,101922.59
2022-12-05T01:27:48.064Z,101931.63
2022-12-05T01:30:41.309Z,101943.28
2022-12-05T01:33:31.456Z,101940.31
2022-12-05T01:36:22.260Z,101946.03
2022-12-05T01:39:13.218Z,101939.72
2022-12-05T01:42:07.062Z,101955.59
2022-12-05T01:45:16.136Z,101946.31
2022-12-05T01:48:12.061Z,101944.72
2022-12-05T01:51:02.464Z,101937.31
2022-12-05T01:53:52.220Z,101939.78
2022-12-05T01:56:43.686Z,101932.69
2022-12-05T01:59:38.665Z,101944.97
2022-12-05T02:02:29.720Z,101931.34
2022-12-05T02:05:22.461Z,101944.47
2022-12-05T02:08:13.353Z,101956.19
2022-12-05T02:11:03.081Z,101958.09
2022-12-05T02:14:22.564Z,101954.88
2022-12-05T02:17:23.105Z,101956.50
2022-12-05T02:20:28.146Z,101964.09
2022-12-05T02:23:52.108Z,101963.59
2022-12-05T02:26:55.840Z,101961.13
2022-12-05T02:30:11.413Z,101975.34
2022-12-05T02:33:18.248Z,101966.06
2022-12-05T02:36:13.877Z,101971.53
2022-12-05T02:39:15.755Z,101970.41
2022-12-05T02:42:12.634Z,101967.66
2022-12-05T02:45:10.093Z,101974.19
2022-12-05T02:48:02.005Z,101979.38
2022-12-05T02:50:53.600Z,101989.44
2022-12-05T02:53:45.588Z,101989.44
2022-12-05T02:56:37.497Z,101984.50
2022-12-05T02:59:26.947Z,101990.47
2022-12-05T03:02:28.213Z,101987.44
2022-12-05T03:05:27.982Z,101995.81
2022-12-05T03:08:24.247Z,101991.19
2022-12-05T03:11:16.070Z,101981.28
2022-12-05T03:14:12.749Z,101989.56
2022-12-05T03:17:08.024Z,101980.44
2022-12-05T03:20:05.674Z,101987.75
2022-12-05T03:23:00.717Z,101987.72
2022-12-05T03:25:59.665Z,101981.72
2022-12-05T03:29:01.244Z,101988.47
2022-12-05T03:32:04.341Z,101997.81
2022-12-05T03:35:06.196Z,102018.19
2022-12-05T03:38:02.806Z,101997.97
2022-12-05T03:40:58.599Z,101993.88
2022-12-05T03:43:54.327Z,102016.03
2022-12-05T03:46:48.873Z,101991.91
2022-12-05T03:49:44.841Z,102019.59
2022-12-05T03:53:17.571Z,102017.81
2022-12-05T03:56:01.654Z,102015.13
2022-12-05T03:58:59.824Z,101987.75
2022-12-05T04:01:51.922Z,102016.78
2022-12-05T04:04:48.798Z,102000.59
2022-12-05T04:07:42.157Z,102021.91
2022-12-05T04:10:48.842Z,102038.84
2022-12-05T04:13:43.523Z,102030.91
2022-12-05T04:16:58.130Z,102023.53
2022-12-05T04:20:09.935Z,102047.78
2022-12-05T04:23:01.423Z,102053.28
2022-12-05T04:26:02.426Z,102047.53
2022-12-05T04:28:59.112Z,102055.72
2022-12-05T04:31:57.756Z,102054.38
2022-12-05T04:34:56.826Z,102056.00
2022-12-05T04:37:50.720Z,102054.44
2022-12-05T04:40:50.990Z,102051.69
2022-12-05T04:43:43.917Z,102041.63
2022-12-05T04:46:34.247Z,102036.47
2022-12-05T04:49:26.633Z,102038.09
2022-12-05T04:52:16.915Z,102045.19
2022-12-05T04:55:10.853Z,102055.09
2022-12-05T04:58:09.091Z,102061.34
2022-12-05T05:01:04.218Z,102058.91
2022-12-05T05:04:00.079Z,102051.81
2022-12-05T05:06:49.542Z,102051.28
2022-12-05T05:09:40.354Z,102051.81
2022-12-05T05:12:29.645Z,102070.94
2022-12-05T05:15:20.440Z,102067.13
2022-12-05T05:18:11.292Z,102071.78
2022-12-05T05:21:00.813Z,102067.13
2022-12-05T05:23:50.716Z,102062.16
2022-12-05T05:26:43.465Z,102069.31
2022-12-05T05:29:32.830Z,102068.97
2022-12-05T05:32:23.523Z,102074.31
2022-12-05T05:35:13.723Z,102069.97
2022-12-05T05:38:03.144Z,102072.94
2022-12-05T05:40:52.612Z,102065.59
2022-12-05T05:43:42.920Z,102062.63
2022-12-05T05:46:35.751Z,102064.13
2022-12-05T05:49:26.796Z,102064.72
2022-12-05T05:52:16.129Z,102068.53
2022-12-05T05:55:07.488Z,102061.44
2022-12-05T05:57:57.127Z,102066.38
2022-12-05T06:00:46.471Z,102076.22
2022-12-05T06:03:36.364Z,102082.22
2022-12-05T06:06:27.378Z,102104.63
2022-12-05T06:09:16.708Z,102096.00
2022-12-05T06:12:06.966Z,102086.47
2022-12-05T06:14:56.337Z,102096.50
2022-12-05T06:17:45.571Z,102105.09
2022-12-05T06:20:35.261Z,102099.31
2022-12-05T06:23:27.645Z,102099.63
2022-12-05T06:26:20.916Z,102094.75
2022-12-05T06:29:10.442Z,102106.19
2022-12-05T06:31:59.888Z,102109.44
2022-12-05T06:34:49.268Z,102102.97
2022-12-05T06:37:39.424Z,102081.06
2022-12-05T06:40:30.178Z,102106.44
2022-12-05T06:43:19.481Z,102100.81
2022-12-05T06:46:11.946Z,102095.38
2022-12-05T06:49:01.899Z,102105.47
2022-12-05T06:51:51.233Z,102105.47
2022-12-05T06:54:40.575Z,102107.56
2022-12-05T06:57:31.432Z,102110.69
2022-12-05T07:00:39.155Z,102122.69
2022-12-05T07:03:28.545Z,102113.84
2022-12-05T07:06:18.432Z,102120.25
2022-12-05T07:09:08.069Z,102129.78
2022-12-05T07:11:57.373Z,102129.56
2022-12-05T07:14:49.852Z,102132.22
2022-12-05T07:17:40.432Z,102133.31
2022-12-05T07:20:38.302Z,102141.41
2022-12-05T07:23:38.699Z,102155.09
2022-12-05T07:26:28.036Z,102148.50
2022-12-05T07:29:17.516Z,102150.69
2022-12-05T07:32:08.780Z,102144.41
2022-12-05T07:34:58.181Z,102149.38
2022-12-05T07:37:47.480Z,102160.00
2022-12-05T07:40:39.117Z,102162.44
2022-12-05T07:43:28.689Z,102158.09
2022-12-05T07:46:18.196Z,102150.69
2022-12-05T07:49:09.941Z,102169.25
2022-12-05T07:51:59.341Z,102158.84
2022-12-05T07:54:48.636Z,102171.66
2022-12-05T07:57:39.379Z,102171.63
2022-12-05T08:00:28.686Z,102171.63
2022-12-05T08:03:17.995Z,102179.28
2022-12-05T08:06:11.639Z,102179.81
2022-12-05T08:09:02.227Z,102199.16
2022-12-05T08:11:52.971Z,102198.97
2022-12-05T08:14:42.630Z,102199.53
2022-12-05T08:17:33.588Z,102212.91
2022-12-05T08:20:22.999Z,102213.97
2022-12-05T08:23:13.732Z,102209.22
2022-12-05T08:26:04.131Z,102210.84
2022-12-05T08:28:56.066Z,102209.75
2022-12-05T08:31:48.616Z,102206.94
2022-12-05T08:34:38.302Z,102210.22
2022-12-05T08:37:27.661Z,102209.41
2022-12-05T08:40:18.624Z,102214.22
2022-12-05T08:43:08.022Z,102211.81
2022-12-05T08:45:57.378Z,102216.66
2022-12-05T08:48:47.077Z,102215.81
2022-12-05T08:51:36.482Z,102232.78
2022-12-05T08:54:26.513Z,102228.44
2022-12-05T08:57:17.302Z,102227.91
2022-12-05T09:00:08.481Z,102231.53
2022-12-05T09:02:57.790Z,102239.75
2022-12-05T09:05:47.190Z,102228.84
2022-12-05T09:08:36.512Z,102234.91
2022-12-05T09:11:28.797Z,102235.13
2022-12-05T09:14:20.316Z,102239.75
2022-12-05T09:17:09.708Z,102231.59
2022-12-05T09:19:59.482Z,102240.38
2022-12-05T09:22:48.822Z,102243.56
2022-12-05T09:25:38.064Z,102234.06
2022-12-05T09:28:27.440Z,102240.28
2022-12-05T09:31:21.029Z,102248.50
2022-12-05T09:34:10.859Z,102241.16
2022-12-05T09:37:16.605Z,102247.16
2022-12-05T09:40:18.403Z,102256.09
2022-12-05T09:43:10.577Z,102246.03
2022-12-05T09:46:11.563Z,102251.91
2022-12-05T09:49:05.595Z,102245.69
2022-12-05T09:51:56.717Z,102246.25
2022-12-05T09:54:46.346Z,102215.31
2022-12-05T09:57:42.053Z,102236.19
2022-12-05T10:00:33.757Z,102252.88
2022-12-05T10:03:30.898Z,102251.25
2022-12-05T10:06:30.300Z,102259.16
2022-12-05T10:09:43.748Z,102255.31
2022-12-05T10:12:53.062Z,102253.41
2022-12-05T10:15:50.177Z,102236.78
2022-12-05T10:18:48.216Z,102251.91
2022-12-05T10:21:49.184Z,102250.88
2022-12-05T10:24:41.998Z,102261.63
2022-12-05T10:27:40.214Z,102255.34
2022-12-05T10:30:33.479Z,102246.34
2022-12-05T10:33:25.231Z,102260.88
2022-12-05T10:36:16.301Z,102262.16
2022-12-05T10:39:11.279Z,102274.22
2022-12-05T10:42:01.284Z,102265.25
2022-12-05T10:44:54.705Z,102261.91
2022-12-05T10:47:44.690Z,102261.16
2022-12-05T10:50:38.361Z,102258.44
2022-12-05T10:53:33.222Z,102257.06
2022-12-05T10:56:45.415Z,102260.06
2022-12-05T10:59:49.119Z,102260.94
2022-12-05T11:02:39.363Z,102266.94
2022-12-05T11:05:31.452Z,102271.00
2022-12-05T11:08:48.238Z,102260.63
2022-12-05T11:11:36.089Z,102264.22
2022-12-05T11:14:29.895Z,102266.47
2022-12-05T11:17:27.765Z,102267.88
2022-12-05T11:20:39.347Z,102273.34
2022-12-05T11:23:31.864Z,102261.88
2022-12-05T11:26:36.321Z,102268.66
2022-12-05T11:29:40.084Z,102246.28
2022-12-05T11:32:33.732Z,102255.22
2022-12-05T11:35:28.474Z,102267.75
2022-12-05T11:38:20.699Z,102260.81
2022-12-05T11:41:43.206Z,102258.34
2022-12-05T11:44:57.271Z,102264.34
2022-12-05T11:48:06.227Z,102260.38
2022-12-05T11:51:17.137Z,102263.25
2022-12-05T11:58:25.420Z,102262.78
2022-12-05T12:01:29.007Z,102272.66
2022-12-05T12:04:51.937Z,102266.13
2022-12-05T12:08:04.937Z,102269.25
2022-12-05T12:11:06.723Z,102268.50
2022-12-05T12:14:07.177Z,102265.44
2022-12-05T12:17:16.457Z,102260.47
2022-12-05T12:20:40.634Z,102263.66
2022-12-05T12:23:42.709Z,102258.34
2022-12-05T12:26:45.780Z,102266.50
2022-12-05T12:30:00.471Z,102257.13
2022-12-05T12:33:05.001Z,102260.84
2022-12-05T12:36:00.574Z,102248.22
2022-12-05T12:39:17.988Z,102258.78
2022-12-05T12:42:26.565Z,102255.50
2022-12-05T12:45:52.451Z,102257.41
2022-12-05T12:49:02.567Z,102251.44
2022-12-05T12:51:59.951Z,102257.69
2022-12-05T12:55:14.212Z,102260.69
2022-12-05T12:58:17.458Z,102260.69
2022-12-05T13:01:18.274Z,102248.22
2022-12-05T13:04:14.960Z,102259.72
2022-12-05T13:07:12.099Z,102260.31
2022-12-05T13:10:13.060Z,102264.13
2022-12-05T13:13:04.094Z,102256.22
2022-12-05T13:15:57.546Z,102258.69
2022-12-05T13:18:47.369Z,102260.94
2022-12-05T13:21:38.134Z,102259.03
2022-12-05T13:24:29.689Z,102260.19
2022-12-05T13:27:21.795Z,102263.53
2022-12-05T13:30:19.953Z,102265.97
2022-12-05T13:33:12.204Z,102257.47
2022-12-05T13:36:29.494Z,102254.75
2022-12-05T13:39:41.849Z,102265.44
2022-12-05T13:42:36.492Z,102263.25
2022-12-05T13:45:26.241Z,102267.63
2022-12-05T13:48:23.843Z,102252.81
2022-12-05T13:51:23.423Z,102258.56
2022-12-05T13:54:18.399Z,102262.09
2022-12-05T13:57:35.739Z,102256.91
2022-12-05T14:00:37.172Z,102253.34
2022-12-05T14:03:58.415Z,102248.19
2022-12-05T14:07:00.320Z,102253.44
2022-12-05T14:09:55.349Z,102259.66
2022-12-05T14:12:52.889Z,102258.34
2022-12-05T14:15:45.689Z,102253.38
2022-12-05T14:18:49.206Z,102256.09
2022-12-05T14:21:47.077Z,102251.69
2022-12-05T14:24:48.074Z,102241.25
2022-12-05T14:27:52.862Z,102239.34
2022-12-05T14:30:54.598Z,102252.00
2022-12-05T14:33:44.285Z,102252.75
2022-12-05T14:36:33.956Z,102247.28
2022-12-05T14:39:31.815Z,102248.88
2022-12-05T14:42:27.347Z,102241.72
2022-12-05T14:45:29.773Z,102243.94
2022-12-05T14:48:32.131Z,102242.88
2022-12-05T14:51:47.055Z,102245.59
2022-12-05T14:54:36.935Z,102243.97
2022-12-05T14:57:26.908Z,102248.94
2022-12-05T15:00:23.855Z,102245.66
2022-12-05T15:03:26.132Z,102236.59
2022-12-05T15:06:17.951Z,102242.66
2022-12-05T15:09:37.020Z,102249.47
2022-12-05T15:12:33.365Z,102251.66
2022-12-05T15:15:35.065Z,102245.72
2022-12-05T15:18:31.253Z,102244.56
2022-12-05T15:21:27.802Z,102252.81
2022-12-05T15:24:19.224Z,102255.56
2022-12-05T15:27:13.147Z,102243.78
2022-12-05T15:30:02.795Z,102248.47
2022-12-05T15:32:57.688Z,102253.59
2022-12-05T15:35:53.480Z,102260.66
2022-12-05T15:38:42.996Z,102261.75
2022-12-05T15:41:32.679Z,102259.28
2022-12-05T15:44:27.630Z,102260.03
2022-12-05T15:47:24.654Z,102253.22
2022-12-05T15:50:16.647Z,102253.66
2022-12-05T15:53:16.661Z,102252.22
2022-12-05T15:56:12.853Z,102254.97
2022-12-05T15:59:11.779Z,102259.63
2022-12-05T16:02:11.636Z,102245.38
2022-12-05T16:05:02.070Z,102260.63
2022-12-05T16:07:53.871Z,102255.44
2022-12-05T16:10:44.865Z,102252.22
2022-12-05T16:13:34.439Z,102242.09
2022-12-05T16:16:27.610Z,102270.56
2022-12-05T16:19:18.055Z,102261.59
2022-12-05T16:22:10.499Z,102245.44
2022-12-05T16:25:04.833Z,102271.69
2022-12-05T16:28:15.206Z,102277.47
2022-12-05T16:31:06.417Z,102260.63
2022-12-05T16:34:08.608Z,102280.91
2022-12-05T16:36:58.921Z,102290.31
2022-12-05T16:39:48.602Z,102275.00
2022-12-05T16:42:39.940Z,102281.28
2022-12-05T16:45:43.512Z,102288.31
2022-12-05T16:48:33.713Z,102294.31
2022-12-05T16:51:26.127Z,102302.56
2022-12-05T16:54:15.572Z,102295.72
2022-12-05T16:57:05.335Z,102309.09
2022-12-05T16:59:54.662Z,102301.44
2022-12-05T17:02:47.139Z,102310.72
2022-12-05T17:05:36.430Z,102301.72
2022-12-05T17:08:26.753Z,102313.97
2022-12-05T17:11:22.275Z,102306.63
2022-12-05T17:14:15.436Z,102316.72
2022-12-05T17:17:06.059Z,102317.91
2022-12-05T17:19:56.830Z,102311.28
2022-12-05T17:22:46.128Z,102316.97
2022-12-05T17:25:38.107Z,102299.19
2022-12-05T17:28:27.832Z,102308.94
2022-12-05T17:31:19.364Z,102287.81
2022-12-05T17:34:17.634Z,102291.81
2022-12-05T17:37:08.310Z,102315.38
2022-12-05T17:39:57.847Z,102314.22
2022-12-05T17:42:48.681Z,102317.25
2022-12-05T17:45:38.089Z,102313.13
2022-12-05T17:48:27.501Z,102322.31
2022-12-05T17:51:17.137Z,102326.44
2022-12-05T17:54:07.926Z,102324.00
2022-12-05T17:56:57.368Z,102310.81
2022-12-05T17:59:46.757Z,102319.28
2022-12-05T18:02:36.174Z,102329.34
2022-12-05T18:05:25.605Z,102327.28
2022-12-05T18:08:16.677Z,102330.41
2022-12-05T18:11:08.203Z,102335.03
2022-12-05T18:13:58.415Z,102322.38
2022-12-05T18:16:47.823Z,102325.78
2022-12-05T18:19:37.085Z,102338.16
2022-12-05T18:22:28.274Z,102343.34
2022-12-05T18:25:17.733Z,102344.84
2022-12-05T18:28:08.748Z,102344.66
2022-12-05T18:31:13.625Z,102344.16
2022-12-05T18:34:03.026Z,102352.66
2022-12-05T18:36:52.879Z,102352.06
2022-12-05T18:39:42.418Z,102345.22
2022-12-05T18:42:31.929Z,102349.03
2022-12-05T18:45:22.740Z,102344.06
2022-12-05T18:51:23.623Z,102357.75
2022-12-05T18:54:13.139Z,102352.69
2022-12-05T18:57:02.742Z,102342.13
2022-12-05T18:59:52.110Z,102355.75
2022-12-05T19:02:43.056Z,102359.94
2022-12-05T19:05:32.617Z,102367.59
2022-12-05T19:08:22.696Z,102361.38
2022-12-05T19:11:13.075Z,102371.56
2022-12-05T19:14:04.875Z,102370.50
2022-12-05T19:17:00.158Z,102369.88
2022-12-05T19:19:51.290Z,102362.41
2022-12-05T19:22:40.657Z,102380.13
2022-12-05T19:25:31.033Z,102375.13
2022-12-05T19:28:20.544Z,102382.19
2022-12-05T19:31:12.171Z,102367.66
2022-12-05T19:34:03.315Z,102370.75
2022-12-05T19:36:54.066Z,102379.19
2022-12-05T19:39:44.682Z,102373.94
2022-12-05T19:42:34.829Z,102379.31
2022-12-05T19:45:24.984Z,102385.81
2022-12-05T19:48:15.190Z,102385.25
2022-12-05T19:51:05.076Z,102386.34
2022-12-05T19:53:55.986Z,102390.06
2022-12-05T19:56:45.681Z,102396.09
2022-12-05T19:59:35.006Z,102411.34
2022-12-05T20:02:25.362Z,102404.34
2022-12-05T20:05:14.863Z,102401.94
2022-12-05T20:08:04.307Z,102407.63
2022-12-05T20:10:55.426Z,102411.75
2022-12-05T20:13:46.893Z,102402.34
2022-12-05T20:16:37.279Z,102404.00
2022-12-05T20:19:26.628Z,102411.69
2022-12-05T20:22:15.929Z,102417.69
2022-12-05T20:25:06.547Z,102410.78
2022-12-05T20:27:57.606Z,102419.03
2022-12-05T20:30:47.113Z,102415.81
2022-12-05T20:33:37.624Z,102414.47
2022-12-05T20:36:29.587Z,102411.28
2022-12-05T20:39:19.881Z,102404.34
2022-12-05T20:42:09.311Z,102411.56
2022-12-05T20:45:00.151Z,102390.47
2022-12-05T20:47:51.396Z,102398.13
2022-12-05T20:50:40.765Z,102403.38
2022-12-05T20:53:30.131Z,102393.06
2022-12-05T20:56:21.464Z,102403.13
2022-12-05T20:59:14.478Z,102396.91
2022-12-05T21:02:05.216Z,102406.66
2022-12-05T21:04:55.034Z,102394.34
2022-12-05T21:07:44.440Z,102399.13
2022-12-05T21:10:33.799Z,102399.41
2022-12-05T21:13:23.090Z,102401.28
2022-12-05T21:16:17.043Z,102390.63
2022-12-05T21:19:08.946Z,102392.78
2022-12-05T21:21:58.304Z,102390.31
2022-12-05T21:24:47.652Z,102394.28
2022-12-05T21:27:37.002Z,102390.16
2022-12-05T21:30:26.678Z,102399.38
2022-12-05T21:33:16.096Z,102401.88
2022-12-05T21:36:08.659Z,102416.63
2022-12-05T21:38:58.275Z,102414.41
2022-12-05T21:41:47.640Z,102408.31
2022-12-05T21:44:36.936Z,102412.03
2022-12-05T21:47:26.820Z,102417.06
2022-12-05T21:50:16.678Z,102416.47
2022-12-05T21:53:07.406Z,102415.41
2022-12-05T21:56:05.288Z,102411.59
2022-12-05T21:58:54.900Z,102415.72
2022-12-05T22:01:44.588Z,102417.69
2022-12-05T22:04:33.977Z,102408.19
2022-12-05T22:07:23.362Z,102412.13
2022-12-05T22:10:14.460Z,102397.56
2022-12-05T22:13:04.750Z,102390.78
2022-12-05T22:15:58.276Z,102391.72
2022-12-05T22:18:48.479Z,102382.41
2022-12-05T22:21:37.764Z,102399.81
2022-12-05T22:24:27.089Z,102393.75
2022-12-05T22:27:18.024Z,102398.13
2022-12-05T22:30:09.600Z,102397.31
2022-12-05T22:32:59.223Z,102382.88
2022-12-05T22:35:53.222Z,102401.09
2022-12-05T22:38:44.549Z,102404.75
2022-12-05T22:41:34.220Z,102392.22
2022-12-05T22:44:25.128Z,102397.41
2022-12-05T22:47:14.571Z,102397.94
2022-12-05T22:50:04.042Z,102398.38
2022-12-05T22:52:53.471Z,102398.63
2022-12-05T22:55:42.789Z,102398.91
2022-12-05T22:58:32.969Z,102401.63
2022-12-05T23:01:26.786Z,102402.53
2022-12-05T23:04:16.492Z,102406.66
2022-12-05T23:07:06.309Z,102416.13
2022-12-05T23:09:56.270Z,102410.91
2022-12-05T23:12:46.121Z,102412.25
2022-12-05T23:15:38.248Z,102404.00
2022-12-05T23:18:29.341Z,102411.19
2022-12-05T23:21:22.544Z,102413.06
2022-12-05T23:24:13.943Z,102406.72
2022-12-05T23:27:03.688Z,102416.13
2022-12-05T23:29:53.884Z,102420.69
2022-12-05T23:32:43.943Z,102430.50
2022-12-05T23:35:36.994Z,102425.31
2022-12-05T23:38:26.810Z,102424.75
2022-12-05T23:41:19.132Z,102421.66
2022-12-05T23:44:08.908Z,102422.50
2022-12-05T23:46:58.872Z,102413.75
2022-12-05T23:49:48.903Z,102411.03
2022-12-05T23:52:40.323Z,102406.66
2022-12-05T23:55:30.196Z,102411.59
2022-12-05T23:58:19.974Z,102405.75
